Time;durP1;ratioP1;P1;durP2;ratioP2;P2;SDS_P1;SDS_P2;PMS_P1;PMS_P2;Temp;Humidity;BMP_temperature;BMP_pressure;BME280_temperature;BME280_humidity;BME280_pressure;Samples;Min_cycle;Max_cycle;Signal;HPM_P1;HPM_P2
2021/06/04 00:01:51;;;;;;;12.47;11.87;;;24.00;75.10;;;;;;3613983;39;20778;-63
2021/06/04 00:04:19;;;;;;;12.23;11.30;;;24.00;75.20;;;;;;3624474;39;20487;-63
2021/06/04 00:06:46;;;;;;;12.40;11.80;;;24.00;75.30;;;;;;3623581;39;20882;-63
2021/06/04 00:09:14;;;;;;;13.63;12.83;;;24.00;75.30;;;;;;3623748;39;20531;-63
2021/06/04 00:11:43;;;;;;;13.70;12.87;;;24.00;75.40;;;;;;3624594;39;20528;-63
2021/06/04 00:14:13;;;;;;;12.50;11.80;;;24.00;75.50;;;;;;3623729;39;20567;-63
2021/06/04 00:16:44;;;;;;;13.47;12.60;;;24.00;75.50;;;;;;3625152;39;20474;-63
2021/06/04 00:19:13;;;;;;;12.30;11.70;;;24.00;75.50;;;;;;3624154;39;21102;-62
2021/06/04 00:21:42;;;;;;;12.87;12.10;;;24.00;75.50;;;;;;3623380;39;20490;-63
2021/06/04 00:24:10;;;;;;;13.43;12.73;;;24.00;75.50;;;;;;3614599;39;20478;-63
2021/06/04 00:26:39;;;;;;;13.27;12.47;;;24.00;75.60;;;;;;3624989;39;20525;-62
2021/06/04 00:29:06;;;;;;;13.90;13.00;;;24.00;75.60;;;;;;3625305;39;20494;-63
2021/06/04 00:31:33;;;;;;;11.90;11.30;;;24.00;75.60;;;;;;3615376;39;20494;-63
2021/06/04 00:34:01;;;;;;;12.80;11.90;;;23.90;75.50;;;;;;3625251;39;20501;-63
2021/06/04 00:36:27;;;;;;;12.03;11.43;;;23.90;75.60;;;;;;3625095;39;20488;-63
2021/06/04 00:38:56;;;;;;;12.70;12.00;;;24.00;75.70;;;;;;3624396;39;20475;-63
2021/06/04 00:41:25;;;;;;;12.13;11.33;;;23.90;75.70;;;;;;3624022;39;20466;-63
2021/06/04 00:43:53;;;;;;;12.73;12.03;;;23.90;75.80;;;;;;3624063;39;20583;-63
2021/06/04 00:46:21;;;;;;;12.77;12.10;;;23.90;75.80;;;;;;3615359;39;20480;-63
2021/06/04 00:48:49;;;;;;;13.30;12.30;;;23.90;75.90;;;;;;3624625;39;20466;-63
2021/06/04 00:51:25;;;;;;;12.97;12.10;;;23.90;75.90;;;;;;3625123;39;20490;-63
2021/06/04 00:53:54;;;;;;;11.70;11.10;;;23.90;75.90;;;;;;3626782;39;20481;-63
2021/06/04 00:56:24;;;;;;;11.50;11.00;;;23.90;75.90;;;;;;3626449;39;20874;-62
2021/06/04 00:58:53;;;;;;;11.83;11.23;;;23.90;75.90;;;;;;3616438;39;20482;-63
2021/06/04 01:01:22;;;;;;;11.23;10.73;;;23.90;76.00;;;;;;3625719;39;20541;-63
2021/06/04 01:03:53;;;;;;;12.00;11.40;;;23.90;76.10;;;;;;3625109;39;20557;-63
2021/06/04 01:06:32;;;;;;;11.80;11.20;;;23.90;76.00;;;;;;3616253;39;20470;-63
2021/06/04 01:09:13;;;;;;;12.50;11.70;;;23.90;76.10;;;;;;3615830;39;20474;-62
2021/06/04 01:11:52;;;;;;;12.13;11.43;;;23.90;76.10;;;;;;3615847;39;20922;-61
2021/06/04 01:14:27;;;;;;;12.20;11.60;;;23.90;76.10;;;;;;3624912;39;20481;-63
2021/06/04 01:17:01;;;;;;;12.17;11.50;;;23.90;76.20;;;;;;3616436;39;20482;-63
2021/06/04 01:19:41;;;;;;;11.63;10.93;;;23.90;76.20;;;;;;3624817;39;20529;-63
2021/06/04 01:22:12;;;;;;;12.13;11.50;;;23.90;76.10;;;;;;3627262;39;20896;-63
2021/06/04 01:25:04;;;;;;;12.63;11.83;;;23.90;76.10;;;;;;3626392;39;20814;-62
2021/06/04 01:27:37;;;;;;;12.73;12.03;;;23.90;76.10;;;;;;3615788;39;20473;-63
2021/06/04 01:30:19;;;;;;;11.53;11.03;;;23.90;76.10;;;;;;3626523;39;20501;-63
2021/06/04 01:32:50;;;;;;;12.97;12.27;;;23.90;76.10;;;;;;3625837;39;20652;-63
2021/06/04 01:35:24;;;;;;;12.87;11.97;;;23.90;76.10;;;;;;3617113;39;20505;-63
2021/06/04 01:37:52;;;;;;;12.73;12.13;;;23.90;76.10;;;;;;3626209;39;20754;-63
2021/06/04 01:40:26;;;;;;;12.43;11.73;;;23.90;76.10;;;;;;3625039;39;20486;-63
2021/06/04 01:42:59;;;;;;;11.47;10.83;;;23.90;76.10;;;;;;3616517;39;20494;-62
2021/06/04 01:45:30;;;;;;;11.33;10.83;;;23.90;76.00;;;;;;3627829;39;20522;-63
2021/06/04 01:48:01;;;;;;;12.27;11.57;;;23.90;76.00;;;;;;3616942;39;20484;-63
2021/06/04 01:50:40;;;;;;;12.43;11.80;;;23.80;75.80;;;;;;3626436;39;20716;-63
2021/06/04 01:53:12;;;;;;;12.43;11.70;;;23.80;75.80;;;;;;3626317;39;21052;-63
2021/06/04 01:55:43;;;;;;;12.20;11.60;;;23.80;75.80;;;;;;3617296;39;20502;-63
2021/06/04 01:58:18;;;;;;;11.80;11.27;;;23.80;75.80;;;;;;3625786;39;20490;-63
2021/06/04 02:00:50;;;;;;;12.60;11.90;;;23.80;75.80;;;;;;3615762;39;20482;-63
2021/06/04 02:03:24;;;;;;;12.80;12.00;;;23.80;75.80;;;;;;3625188;39;20475;-63
2021/06/04 02:05:57;;;;;;;13.80;12.80;;;23.80;75.90;;;;;;3625929;39;20821;-63
2021/06/04 02:08:32;;;;;;;11.43;10.93;;;23.80;75.90;;;;;;3616583;39;20509;-63
2021/06/04 02:11:01;;;;;;;12.30;11.40;;;23.80;75.80;;;;;;3624978;39;20481;-63
2021/06/04 02:13:31;;;;;;;12.40;11.70;;;23.80;75.70;;;;;;3616550;39;20490;-63
2021/06/04 02:16:25;;;;;;;12.10;11.50;;;23.80;75.60;;;;;;3616012;39;20478;-62
2021/06/04 02:19:05;;;;;;;12.23;11.63;;;23.80;75.60;;;;;;3625348;39;20669;-63
2021/06/04 02:21:50;;;;;;;11.60;11.00;;;23.80;76.40;;;;;;3616686;39;20470;-63
2021/06/04 02:24:30;;;;;;;11.47;10.87;;;23.80;75.60;;;;;;3615670;39;20494;-63
2021/06/04 02:27:01;;;;;;;13.80;12.90;;;23.80;75.60;;;;;;3625134;39;20493;-62
2021/06/04 02:29:35;;;;;;;11.83;11.23;;;23.80;76.40;;;;;;3616428;39;20474;-63
2021/06/04 02:32:08;;;;;;;12.00;11.30;;;23.80;75.60;;;;;;3625296;39;20536;-63
2021/06/04 02:34:41;;;;;;;12.30;11.50;;;23.80;75.60;;;;;;3625194;39;20522;-63
2021/06/04 02:37:14;;;;;;;12.83;12.13;;;23.80;75.60;;;;;;3626092;39;20474;-63
2021/06/04 02:39:47;;;;;;;12.80;12.00;;;23.80;75.60;;;;;;3617384;39;20482;-63
2021/06/04 02:42:17;;;;;;;12.50;11.80;;;23.80;75.60;;;;;;3615747;39;20567;-63
2021/06/04 02:44:49;;;;;;;12.90;11.97;;;23.80;75.70;;;;;;3615970;39;20486;-63
2021/06/04 02:47:20;;;;;;;12.60;11.90;;;23.80;75.60;;;;;;3625163;39;20511;-63
2021/06/04 02:49:48;;;;;;;13.27;12.47;;;23.80;75.60;;;;;;3625068;39;20556;-63
2021/06/04 02:52:41;;;;;;;13.37;12.57;;;23.80;75.60;;;;;;3615870;39;20474;-63
2021/06/04 02:55:13;;;;;;;12.80;12.10;;;23.80;75.60;;;;;;3605950;39;20475;-63
2021/06/04 02:57:42;;;;;;;13.00;12.20;;;23.80;75.70;;;;;;3615667;39;20478;-63
2021/06/04 03:00:17;;;;;;;14.07;13.17;;;23.80;75.60;;;;;;3616451;39;20502;-63
2021/06/04 03:02:44;;;;;;;13.80;13.10;;;23.80;75.90;;;;;;3615251;39;20517;-63
2021/06/04 03:05:16;;;;;;;13.63;12.83;;;23.80;75.70;;;;;;3615671;39;20478;-63
2021/06/04 03:07:43;;;;;;;14.00;13.20;;;23.80;75.70;;;;;;3614857;39;20502;-63
2021/06/04 03:10:25;;;;;;;12.80;12.20;;;23.80;75.70;;;;;;3614307;39;20510;-63
2021/06/04 03:12:53;;;;;;;13.13;12.53;;;23.80;75.70;;;;;;3624152;39;20873;-63
2021/06/04 03:15:28;;;;;;;13.77;13.07;;;23.70;75.70;;;;;;3626050;39;20509;-63
2021/06/04 03:17:56;;;;;;;13.00;12.40;;;23.80;75.80;;;;;;3615832;39;20856;-63
2021/06/04 03:20:32;;;;;;;13.63;12.93;;;23.80;75.70;;;;;;3615193;39;21011;-63
2021/06/04 03:23:00;;;;;;;14.07;13.37;;;23.80;75.60;;;;;;3623405;39;21131;-63
2021/06/04 03:25:32;;;;;;;14.20;13.40;;;23.70;75.60;;;;;;3624899;39;20526;-63
2021/06/04 03:28:01;;;;;;;13.83;13.03;;;23.70;75.70;;;;;;3616081;39;20478;-63
2021/06/04 03:30:38;;;;;;;13.77;13.07;;;23.70;75.70;;;;;;3615558;39;20531;-63
2021/06/04 03:33:07;;;;;;;13.40;12.70;;;23.70;75.70;;;;;;3624794;39;20459;-63
2021/06/04 03:35:38;;;;;;;12.60;12.00;;;23.70;75.70;;;;;;3615405;39;20479;-63
2021/06/04 03:38:06;;;;;;;13.30;12.50;;;23.70;75.70;;;;;;3624228;39;21100;-63
2021/06/04 03:40:34;;;;;;;13.13;12.33;;;23.70;75.80;;;;;;3620203;39;20477;-63
2021/06/04 03:43:05;;;;;;;13.40;12.63;;;23.70;75.80;;;;;;3623842;39;20492;-63
2021/06/04 03:45:35;;;;;;;13.97;13.27;;;23.70;75.80;;;;;;3621192;39;20509;-63
2021/06/04 03:48:05;;;;;;;14.03;13.33;;;23.70;75.80;;;;;;3622394;39;20567;-63
2021/06/04 03:50:34;;;;;;;14.53;13.73;;;23.70;75.80;;;;;;3614660;39;20490;-63
2021/06/04 03:53:01;;;;;;;13.80;13.00;;;23.70;75.90;;;;;;3623378;39;20490;-62
2021/06/04 03:55:28;;;;;;;13.53;12.73;;;23.70;76.00;;;;;;3622613;39;20517;-62
2021/06/04 03:57:55;;;;;;;12.67;12.07;;;23.70;76.00;;;;;;3625896;39;20482;-63
2021/06/04 04:00:26;;;;;;;13.90;13.20;;;23.70;76.00;;;;;;3633974;39;21129;-63
2021/06/04 04:02:56;;;;;;;14.40;13.60;;;23.70;76.00;;;;;;3633082;39;20478;-63
2021/06/04 04:05:24;;;;;;;14.17;13.37;;;23.70;76.00;;;;;;3634203;39;20469;-63
2021/06/04 04:07:51;;;;;;;14.60;13.70;;;23.60;76.00;;;;;;3633600;39;20482;-63
2021/06/04 04:10:19;;;;;;;13.97;13.20;;;23.60;76.00;;;;;;3633590;39;20470;-63
2021/06/04 04:12:47;;;;;;;14.80;13.90;;;23.60;76.00;;;;;;3634342;39;20537;-63
2021/06/04 04:15:17;;;;;;;14.00;13.30;;;23.60;75.90;;;;;;3631707;39;20478;-63
2021/06/04 04:17:44;;;;;;;14.20;13.50;;;23.60;75.90;;;;;;3632579;39;21041;-63
2021/06/04 04:20:15;;;;;;;14.40;13.70;;;23.60;75.90;;;;;;3625025;39;21070;-63
2021/06/04 04:22:42;;;;;;;15.43;14.23;;;23.60;75.90;;;;;;3634216;39;20967;-63
2021/06/04 04:25:10;;;;;;;13.70;13.00;;;23.60;75.90;;;;;;3634683;39;20478;-63
2021/06/04 04:27:37;;;;;;;14.40;13.80;;;23.60;75.90;;;;;;3634748;39;20556;-63
2021/06/04 04:30:05;;;;;;;14.50;13.80;;;23.60;75.90;;;;;;3633528;39;20490;-63
2021/06/04 04:32:32;;;;;;;15.20;14.30;;;23.60;76.00;;;;;;3633506;39;20477;-62
2021/06/04 04:34:59;;;;;;;15.13;14.33;;;23.60;75.90;;;;;;3633719;39;20693;-63
2021/06/04 04:37:27;;;;;;;15.00;14.20;;;23.60;76.00;;;;;;3633215;39;20729;-63
2021/06/04 04:39:53;;;;;;;14.53;13.73;;;23.60;76.00;;;;;;3633425;39;21130;-63
2021/06/04 04:42:22;;;;;;;14.80;14.00;;;23.60;76.10;;;;;;3634374;39;20519;-63
2021/06/04 04:44:51;;;;;;;15.00;14.07;;;23.60;76.00;;;;;;3624574;39;20478;-63
2021/06/04 04:47:20;;;;;;;16.70;15.23;;;23.60;76.00;;;;;;3632066;39;20504;-63
2021/06/04 04:49:46;;;;;;;15.90;15.03;;;23.60;75.90;;;;;;3632692;39;20515;-63
2021/06/04 04:52:14;;;;;;;15.13;13.93;;;23.70;75.70;;;;;;3631233;39;20469;-63
2021/06/04 04:54:45;;;;;;;15.60;14.70;;;23.70;75.60;;;;;;3631142;39;20486;-63
2021/06/04 04:57:13;;;;;;;15.13;14.33;;;23.70;75.50;;;;;;3631255;39;20484;-62
2021/06/04 04:59:40;;;;;;;15.87;15.07;;;23.70;75.40;;;;;;3631809;39;20566;-63
2021/06/04 05:02:07;;;;;;;15.20;14.40;;;23.70;75.40;;;;;;3632159;39;20481;-63
2021/06/04 05:04:35;;;;;;;15.80;14.90;;;23.60;75.30;;;;;;3630608;39;20541;-63
2021/06/04 05:07:03;;;;;;;16.27;15.37;;;23.70;75.50;;;;;;3630736;39;20486;-63
2021/06/04 05:09:29;;;;;;;16.30;15.40;;;23.60;75.40;;;;;;3621064;39;21117;-63
2021/06/04 05:11:58;;;;;;;15.20;14.37;;;23.60;75.50;;;;;;3629157;39;20462;-63
2021/06/04 05:14:25;;;;;;;15.93;14.93;;;23.60;75.60;;;;;;3628240;39;20489;-63
2021/06/04 05:16:52;;;;;;;15.57;14.77;;;23.60;75.60;;;;;;3620702;39;20477;-63
2021/06/04 05:19:19;;;;;;;15.47;14.43;;;23.60;75.60;;;;;;3628774;39;20478;-63
2021/06/04 05:21:46;;;;;;;14.90;14.20;;;23.60;75.50;;;;;;3628825;39;20485;-63
2021/06/04 05:24:13;;;;;;;16.00;15.10;;;23.70;75.30;;;;;;3628837;39;20489;-63
2021/06/04 05:26:40;;;;;;;14.90;14.20;;;23.70;75.20;;;;;;3628168;39;20489;-63
2021/06/04 05:29:08;;;;;;;15.53;14.63;;;23.70;75.00;;;;;;3628921;39;20489;-63
2021/06/04 05:31:38;;;;;;;15.23;14.40;;;23.70;75.10;;;;;;3628693;39;21165;-63
2021/06/04 05:34:05;;;;;;;13.67;13.00;;;23.70;75.10;;;;;;3627498;39;20500;-63
2021/06/04 05:36:34;;;;;;;15.10;14.00;;;23.70;74.90;;;;;;3627721;39;20863;-63
2021/06/04 05:39:02;;;;;;;14.40;13.70;;;23.70;74.90;;;;;;3627747;39;20493;-63
2021/06/04 05:41:28;;;;;;;14.70;13.87;;;23.70;75.00;;;;;;3619970;39;20489;-62
2021/06/04 05:43:55;;;;;;;15.37;14.30;;;23.70;75.20;;;;;;3626451;39;20485;-63
2021/06/04 05:46:24;;;;;;;15.43;14.53;;;23.70;75.20;;;;;;3626582;39;20507;-63
2021/06/04 05:48:51;;;;;;;15.17;14.30;;;23.70;75.10;;;;;;3628926;39;20478;-63
2021/06/04 05:51:21;;;;;;;16.60;15.50;;;23.70;75.10;;;;;;3628522;39;20531;-63
2021/06/04 05:53:48;;;;;;;15.90;14.93;;;23.70;76.20;;;;;;3627013;39;20902;-62
2021/06/04 05:56:18;;;;;;;15.87;14.87;;;23.70;76.80;;;;;;3627681;39;20480;-63
2021/06/04 05:58:45;;;;;;;15.77;14.80;;;23.60;76.90;;;;;;3622662;39;20521;-63
2021/06/04 06:01:15;;;;;;;16.03;14.93;;;23.60;76.70;;;;;;3618183;39;20471;-63
2021/06/04 06:03:44;;;;;;;15.37;13.90;;;23.60;76.80;;;;;;3616601;39;20482;-63
2021/06/04 06:06:13;;;;;;;15.13;14.00;;;23.60;76.70;;;;;;3615879;39;20505;-63
2021/06/04 06:08:40;;;;;;;16.15;15.13;;;23.60;76.80;;;;;;3614557;39;20482;-63
2021/06/04 06:11:07;;;;;;;15.73;14.50;;;23.70;76.80;;;;;;3612164;39;20230;-63
2021/06/04 06:13:34;;;;;;;14.60;13.80;;;23.70;77.60;;;;;;3616276;39;20604;-63
2021/06/04 06:16:02;;;;;;;16.03;14.87;;;23.70;77.00;;;;;;3614538;39;20868;-63
2021/06/04 06:18:29;;;;;;;15.30;14.30;;;23.70;76.80;;;;;;3616092;39;20486;-63
2021/06/04 06:20:58;;;;;;;16.23;15.10;;;23.70;77.30;;;;;;3614424;39;20571;-63
2021/06/04 06:23:26;;;;;;;15.55;14.48;;;23.80;77.10;;;;;;3613683;39;20490;-63
2021/06/04 06:25:56;;;;;;;15.07;14.17;;;23.80;77.20;;;;;;3613561;39;20824;-62
2021/06/04 06:28:25;;;;;;;15.27;14.17;;;23.80;77.30;;;;;;3613104;39;20764;-63
2021/06/04 06:30:52;;;;;;;15.87;14.50;;;23.80;77.20;;;;;;3613418;39;20517;-63
2021/06/04 06:33:20;;;;;;;16.00;14.90;;;23.80;77.00;;;;;;3615180;39;20474;-63
2021/06/04 06:35:51;;;;;;;15.63;14.73;;;23.80;77.20;;;;;;3614838;39;20925;-62
2021/06/04 06:38:20;;;;;;;15.73;14.53;;;23.80;77.10;;;;;;3616305;39;20479;-62
2021/06/04 06:40:47;;;;;;;15.20;14.33;;;23.80;77.30;;;;;;3614138;39;20485;-62
2021/06/04 06:43:15;;;;;;;16.30;14.97;;;23.80;77.80;;;;;;3612819;39;20482;-63
2021/06/04 06:45:43;;;;;;;13.20;12.40;;;23.80;77.80;;;;;;3613438;39;20490;-63
2021/06/04 06:48:11;;;;;;;16.73;15.30;;;23.90;79.80;;;;;;3612838;39;20475;-64
2021/06/04 06:50:40;;;;;;;15.03;14.20;;;23.90;79.30;;;;;;3609498;39;20475;-64
2021/06/04 06:53:09;;;;;;;14.83;13.97;;;23.90;79.00;;;;;;3612402;39;20467;-64
2021/06/04 06:55:39;;;;;;;17.10;15.30;;;23.90;78.70;;;;;;3610973;39;20568;-64
2021/06/04 06:58:06;;;;;;;15.20;14.33;;;23.90;78.60;;;;;;3611462;39;20475;-64
2021/06/04 07:00:37;;;;;;;15.60;14.40;;;23.90;78.50;;;;;;3614195;39;21377;-64
2021/06/04 07:03:04;;;;;;;15.80;14.90;;;23.90;78.40;;;;;;3613067;39;20531;-64
2021/06/04 07:05:32;;;;;;;15.83;14.83;;;23.90;78.30;;;;;;3612953;39;20491;-64
2021/06/04 07:08:03;;;;;;;15.70;14.80;;;23.90;78.20;;;;;;3614022;39;20767;-63
2021/06/04 07:10:30;;;;;;;17.30;16.00;;;23.90;78.20;;;;;;3610513;39;20817;-64
2021/06/04 07:13:01;;;;;;;16.50;15.50;;;23.90;78.10;;;;;;3613774;39;20518;-63
2021/06/04 07:15:31;;;;;;;16.50;15.37;;;23.90;78.00;;;;;;3614089;39;20482;-63
2021/06/04 07:17:59;;;;;;;17.30;16.10;;;23.90;78.00;;;;;;3613219;39;20523;-63
2021/06/04 07:20:28;;;;;;;16.53;15.13;;;23.90;78.00;;;;;;3613155;39;20535;-64
2021/06/04 07:23:02;;;;;;;16.30;15.37;;;23.90;77.90;;;;;;3612747;39;20481;-65
2021/06/04 07:25:33;;;;;;;17.50;16.13;;;23.90;77.90;;;;;;3612561;39;20753;-65
2021/06/04 07:28:05;;;;;;;17.83;16.13;;;24.00;77.90;;;;;;3613406;39;20529;-65
2021/06/04 07:30:35;;;;;;;16.50;15.30;;;24.00;77.90;;;;;;3611159;39;20585;-65
2021/06/04 07:33:06;;;;;;;16.37;15.33;;;24.00;77.80;;;;;;3610565;39;20489;-65
2021/06/04 07:35:35;;;;;;;16.33;15.47;;;24.00;77.80;;;;;;3568543;39;20486;-65
2021/06/04 07:38:03;;;;;;;16.43;15.30;;;24.00;77.80;;;;;;3609345;39;20494;-65
2021/06/04 07:40:31;;;;;;;16.77;15.70;;;24.00;77.80;;;;;;3610038;39;20478;-65
2021/06/04 07:43:01;;;;;;;17.13;16.10;;;24.00;77.80;;;;;;3611494;39;20494;-65
2021/06/04 07:45:31;;;;;;;17.37;16.27;;;24.00;77.70;;;;;;3611509;39;20569;-65
2021/06/04 07:47:58;;;;;;;15.97;14.87;;;24.00;77.70;;;;;;3611720;39;20644;-65
2021/06/04 07:50:25;;;;;;;17.20;15.80;;;24.00;77.70;;;;;;3610422;39;20489;-65
2021/06/04 07:52:52;;;;;;;16.67;15.67;;;24.00;77.70;;;;;;3607677;39;20491;-65
2021/06/04 07:55:20;;;;;;;16.20;15.10;;;24.00;77.70;;;;;;3611395;39;21215;-65
2021/06/04 07:57:46;;;;;;;17.63;16.20;;;24.00;77.70;;;;;;3611070;39;20490;-65
2021/06/04 08:00:18;;;;;;;17.20;15.77;;;24.00;77.70;;;;;;3600963;39;20490;-65
2021/06/04 08:02:45;;;;;;;16.20;15.10;;;24.00;77.60;;;;;;3611105;39;20722;-65
2021/06/04 08:05:13;;;;;;;17.37;16.20;;;24.00;77.70;;;;;;3611329;39;20673;-65
2021/06/04 08:07:40;;;;;;;16.33;15.13;;;24.00;77.70;;;;;;3609439;39;20482;-65
2021/06/04 08:10:09;;;;;;;17.43;16.43;;;24.00;77.80;;;;;;3608520;39;20495;-65
2021/06/04 08:12:37;;;;;;;15.40;14.30;;;24.00;77.70;;;;;;3607114;39;20488;-65
2021/06/04 08:15:11;;;;;;;15.90;14.90;;;24.00;77.70;;;;;;3611522;39;20471;-65
2021/06/04 08:17:41;;;;;;;16.20;15.10;;;24.00;77.70;;;;;;3609683;39;20489;-65
2021/06/04 08:20:11;;;;;;;15.40;14.70;;;24.00;77.80;;;;;;3611734;39;20471;-65
2021/06/04 08:22:41;;;;;;;15.43;14.50;;;24.00;77.80;;;;;;3608424;39;20475;-65
2021/06/04 08:25:08;;;;;;;16.80;15.80;;;24.00;77.80;;;;;;3607365;39;20543;-65
2021/06/04 08:27:35;;;;;;;16.63;15.50;;;24.00;77.90;;;;;;3609478;39;20584;-65
2021/06/04 08:30:01;;;;;;;15.63;14.83;;;24.00;77.90;;;;;;3607195;39;20546;-65
2021/06/04 08:32:28;;;;;;;15.90;15.00;;;24.00;78.00;;;;;;3609158;39;20712;-65
2021/06/04 08:34:56;;;;;;;17.23;16.17;;;24.00;78.00;;;;;;3609615;39;20489;-65
2021/06/04 08:37:23;;;;;;;16.73;15.70;;;24.10;78.10;;;;;;3607284;39;20474;-65
2021/06/04 08:39:49;;;;;;;16.40;15.27;;;24.10;78.20;;;;;;3607791;39;21264;-65
2021/06/04 08:42:38;;;;;;;16.50;15.50;;;24.10;78.20;;;;;;3611886;39;20494;-65
2021/06/04 08:45:34;;;;;;;17.40;16.30;;;24.10;78.30;;;;;;3609273;39;20482;-65
2021/06/04 08:48:10;;;;;;;17.07;16.17;;;24.10;78.20;;;;;;3610226;39;20526;-65
2021/06/04 08:50:48;;;;;;;17.17;16.17;;;24.10;78.30;;;;;;3599998;39;20497;-65
2021/06/04 08:53:21;;;;;;;17.50;16.33;;;24.10;78.30;;;;;;3608373;39;20485;-65
2021/06/04 08:55:56;;;;;;;18.43;17.17;;;24.10;78.30;;;;;;3608813;39;20467;-65
2021/06/04 08:58:47;;;;;;;16.00;15.07;;;24.10;78.30;;;;;;3607678;39;20482;-66
2021/06/04 09:01:18;;;;;;;16.93;16.13;;;24.10;78.40;;;;;;3610067;39;20535;-65
2021/06/04 09:03:50;;;;;;;17.53;16.53;;;24.10;78.40;;;;;;3609565;39;20927;-65
2021/06/04 09:06:30;;;;;;;16.60;15.70;;;24.10;78.50;;;;;;3607336;39;20486;-65
2021/06/04 09:09:01;;;;;;;17.13;16.23;;;24.10;78.50;;;;;;3605635;39;20490;-65
2021/06/04 09:11:30;;;;;;;17.70;16.60;;;24.10;78.50;;;;;;3607911;39;20471;-65
2021/06/04 09:13:57;;;;;;;18.03;17.00;;;24.10;78.60;;;;;;3610026;39;20506;-65
2021/06/04 09:16:33;;;;;;;16.37;15.57;;;24.10;78.60;;;;;;3611286;39;20571;-65
2021/06/04 09:19:08;;;;;;;17.30;16.37;;;24.10;78.70;;;;;;3611821;39;20482;-63
2021/06/04 09:21:38;;;;;;;17.93;17.00;;;24.10;78.70;;;;;;3612904;39;21341;-63
2021/06/04 09:24:08;;;;;;;17.50;16.47;;;24.10;78.70;;;;;;3610614;39;20470;-63
2021/06/04 09:26:35;;;;;;;16.73;15.83;;;24.10;78.70;;;;;;3611971;39;20482;-63
2021/06/04 09:29:15;;;;;;;17.03;16.10;;;24.10;78.70;;;;;;3606962;39;20587;-62
2021/06/04 09:31:48;;;;;;;16.70;15.80;;;24.10;78.80;;;;;;3610156;39;20497;-63
2021/06/04 09:34:30;;;;;;;16.63;15.73;;;24.10;78.70;;;;;;3611657;39;20497;-63
2021/06/04 09:37:01;;;;;;;16.70;15.70;;;24.10;78.70;;;;;;3608641;39;20497;-63
2021/06/04 09:39:33;;;;;;;17.87;16.47;;;24.10;78.80;;;;;;3612481;39;20474;-63
2021/06/04 09:42:20;;;;;;;17.13;16.23;;;24.10;78.70;;;;;;3612607;39;21192;-63
2021/06/04 09:44:59;;;;;;;17.60;16.50;;;24.20;78.90;;;;;;3611612;39;20486;-63
2021/06/04 09:47:34;;;;;;;16.57;15.67;;;24.20;78.90;;;;;;3601535;39;21290;-63
2021/06/04 09:50:16;;;;;;;17.30;16.20;;;24.20;78.90;;;;;;3604926;39;20624;-63
2021/06/04 09:52:46;;;;;;;17.80;16.77;;;24.20;78.90;;;;;;3608953;39;20481;-63
2021/06/04 09:55:30;;;;;;;18.13;17.00;;;24.20;78.90;;;;;;3603710;39;20495;-62
2021/06/04 09:58:00;;;;;;;18.00;16.80;;;24.20;79.00;;;;;;3597579;39;20519;-63
2021/06/04 10:00:32;;;;;;;17.67;16.60;;;24.20;78.90;;;;;;3600239;39;21010;-63
2021/06/04 10:03:23;;;;;;;16.80;15.90;;;24.10;78.80;;;;;;3600268;39;20499;-63
2021/06/04 10:05:54;;;;;;;16.43;15.50;;;24.20;78.90;;;;;;3600206;39;20491;-63
2021/06/04 10:08:26;;;;;;;16.37;15.47;;;24.20;78.90;;;;;;3604758;39;20503;-62
2021/06/04 10:11:11;;;;;;;16.10;15.30;;;24.20;78.90;;;;;;3599536;39;21017;-63
2021/06/04 10:13:47;;;;;;;16.60;15.77;;;24.20;78.90;;;;;;3591544;39;20506;-63
2021/06/04 10:16:28;;;;;;;16.80;15.80;;;24.10;78.80;;;;;;3591551;39;20707;-63
2021/06/04 10:18:55;;;;;;;16.40;15.40;;;24.20;78.90;;;;;;3584942;39;20494;-62
2021/06/04 10:21:28;;;;;;;15.97;15.07;;;24.20;78.80;;;;;;3583756;39;20630;-63
2021/06/04 10:23:56;;;;;;;16.07;15.07;;;24.10;78.70;;;;;;3587015;39;20480;-62
2021/06/04 10:26:27;;;;;;;15.23;14.33;;;24.20;78.70;;;;;;3578567;39;20723;-63
2021/06/04 10:28:57;;;;;;;15.40;14.60;;;24.20;78.70;;;;;;3597894;39;20491;-63
2021/06/04 10:35:10;;;;;;;14.73;13.93;;;24.20;78.60;;;;;;3590153;39;20798;-63
2021/06/04 10:37:40;;;;;;;16.10;15.10;;;24.20;78.50;;;;;;3590245;39;20484;-62
2021/06/04 10:40:15;;;;;;;15.17;14.43;;;24.20;78.50;;;;;;3589243;39;20762;-63
2021/06/04 10:42:57;;;;;;;15.43;14.60;;;24.10;78.40;;;;;;3573878;39;20487;-63
2021/06/04 10:45:30;;;;;;;17.63;16.43;;;24.10;78.40;;;;;;3591841;39;20484;-63
2021/06/04 10:48:32;;;;;;;15.50;14.60;;;24.10;78.30;;;;;;3571860;39;20562;-63
2021/06/04 10:51:13;;;;;;;15.40;14.60;;;24.10;78.40;;;;;;3577485;39;20489;-63
2021/06/04 10:53:51;;;;;;;15.87;14.97;;;24.10;78.30;;;;;;3579502;39;20481;-63
2021/06/04 10:56:30;;;;;;;16.73;15.83;;;24.10;78.30;;;;;;3578832;40;20511;-63
2021/06/04 10:59:04;;;;;;;15.80;14.90;;;24.10;78.30;;;;;;3586261;39;20472;-63
2021/06/04 11:01:38;;;;;;;16.73;15.83;;;24.10;78.30;;;;;;3579071;40;20496;-63
2021/06/04 11:04:13;;;;;;;16.80;15.50;;;24.10;78.40;;;;;;3582089;39;20476;-63
2021/06/04 11:06:56;;;;;;;15.87;15.07;;;24.10;78.30;;;;;;3590839;39;20817;-63
2021/06/04 11:09:30;;;;;;;15.77;14.87;;;24.10;78.40;;;;;;3588446;39;20491;-63
2021/06/04 11:12:19;;;;;;;15.73;14.93;;;24.10;78.40;;;;;;3584277;39;20487;-63
2021/06/04 11:15:10;;;;;;;16.10;15.20;;;24.10;78.40;;;;;;3589322;39;20468;-63
2021/06/04 11:17:46;;;;;;;16.10;15.10;;;24.10;78.40;;;;;;3590414;39;20944;-63
2021/06/04 11:20:19;;;;;;;16.00;15.20;;;24.10;78.40;;;;;;3590044;39;21206;-63
2021/06/04 11:23:02;;;;;;;15.77;14.87;;;24.10;78.50;;;;;;3591829;39;20659;-63
2021/06/04 11:25:52;;;;;;;16.87;15.87;;;24.10;78.50;;;;;;3594168;39;20601;-63
2021/06/04 11:28:50;;;;;;;16.70;15.80;;;24.10;78.60;;;;;;3601807;39;20502;-63
2021/06/04 11:31:33;;;;;;;16.70;15.70;;;24.10;78.60;;;;;;3599829;39;20924;-63
2021/06/04 11:34:05;;;;;;;16.57;15.63;;;24.10;78.70;;;;;;3606174;39;21023;-63
2021/06/04 11:36:37;;;;;;;17.10;16.10;;;24.10;78.70;;;;;;3601866;39;20715;-62
2021/06/04 11:39:17;;;;;;;15.70;14.90;;;24.10;78.80;;;;;;3608104;39;21321;-63
2021/06/04 11:41:50;;;;;;;16.37;15.47;;;24.10;78.80;;;;;;3613369;39;20585;-62
2021/06/04 11:44:28;;;;;;;15.70;14.80;;;24.10;78.90;;;;;;3613524;39;20500;-63
2021/06/04 11:47:30;;;;;;;16.00;15.03;;;24.20;79.10;;;;;;3612540;39;20487;-63
2021/06/04 11:50:34;;;;;;;17.33;16.30;;;24.20;79.20;;;;;;3606882;39;20502;-62
2021/06/04 11:53:30;;;;;;;17.07;16.07;;;24.10;79.10;;;;;;3579405;39;20495;-62
2021/06/04 11:56:05;;;;;;;15.77;14.77;;;24.10;79.10;;;;;;3597016;39;20961;-63
2021/06/04 11:58:57;;;;;;;16.30;15.17;;;24.10;79.10;;;;;;3599660;39;20570;-63
2021/06/04 12:01:41;;;;;;;16.17;15.27;;;24.10;79.20;;;;;;3611849;39;20490;-63
2021/06/04 12:04:17;;;;;;;16.00;15.00;;;24.20;79.30;;;;;;3612213;39;21377;-63
2021/06/04 12:07:00;;;;;;;15.40;14.60;;;24.10;79.30;;;;;;3603002;39;20487;-63
2021/06/04 12:09:48;;;;;;;15.20;14.30;;;24.10;79.30;;;;;;3614472;39;20571;-62
2021/06/04 12:12:58;;;;;;;16.37;15.27;;;24.10;80.10;;;;;;3614266;39;20489;-63
2021/06/04 12:15:38;;;;;;;16.30;15.07;;;24.10;79.30;;;;;;3613346;39;21058;-63
2021/06/04 12:18:41;;;;;;;17.60;16.50;;;24.20;79.40;;;;;;3614154;39;20474;-63
2021/06/04 12:21:07;;;;;;;16.83;15.73;;;24.20;79.60;;;;;;3611396;39;20589;-63
2021/06/04 12:23:49;;;;;;;15.90;14.90;;;24.10;79.40;;;;;;3608925;39;20664;-63
2021/06/04 12:26:35;;;;;;;18.30;17.20;;;24.10;79.60;;;;;;3605675;39;20478;-63
2021/06/04 12:29:38;;;;;;;16.43;15.27;;;24.20;79.70;;;;;;3603912;39;21120;-63
2021/06/04 12:32:09;;;;;;;15.73;14.77;;;24.10;79.70;;;;;;3605934;39;20479;-62
2021/06/04 12:34:57;;;;;;;16.60;15.00;;;24.10;79.60;;;;;;3606267;39;20470;-63
2021/06/04 12:37:33;;;;;;;18.30;16.50;;;24.20;79.90;;;;;;3605079;39;20495;-63
2021/06/04 12:40:26;;;;;;;16.23;15.03;;;24.20;79.90;;;;;;3609309;39;20494;-63
2021/06/04 12:43:13;;;;;;;15.23;14.33;;;24.20;80.00;;;;;;3593999;39;20499;-63
2021/06/04 12:45:44;;;;;;;15.70;14.90;;;24.20;80.00;;;;;;3616713;39;20478;-63
2021/06/04 12:48:24;;;;;;;14.93;14.00;;;24.20;80.00;;;;;;3617445;39;20489;-63
2021/06/04 12:51:19;;;;;;;15.63;14.40;;;24.20;80.00;;;;;;3607229;39;20471;-63
2021/06/04 12:53:48;;;;;;;15.30;14.50;;;24.20;80.10;;;;;;3614462;39;20583;-63
2021/06/04 12:56:25;;;;;;;15.77;14.57;;;24.20;80.10;;;;;;3618591;39;20527;-63
2021/06/04 12:59:14;;;;;;;15.87;14.80;;;24.20;80.10;;;;;;3616250;39;20483;-63
2021/06/04 13:02:17;;;;;;;15.40;14.40;;;24.20;80.20;;;;;;3618504;39;20474;-63